Time;durP1;ratioP1;P1;durP2;ratioP2;P2;SDS_P1;SDS_P2;PMS_P1;PMS_P2;Temp;Humidity;BMP_temperature;BMP_pressure;BME280_temperature;BME280_humidity;BME280_pressure;Samples;Min_cycle;Max_cycle;Signal;HPM_P1;HPM_P2
2023/08/03 00:00:38;;;;;;;3.67;1.40;;;16.90;99.90;;;;;;5036860;28;20079;-70
2023/08/03 00:03:05;;;;;;;6.35;1.83;;;16.90;99.90;;;;;;5036812;28;20025;-70
2023/08/03 00:05:31;;;;;;;5.68;1.63;;;16.90;99.90;;;;;;5036662;28;20158;-70
2023/08/03 00:07:56;;;;;;;9.32;1.77;;;17.00;99.90;;;;;;5036677;28;20030;-70
2023/08/03 00:10:22;;;;;;;5.50;1.70;;;17.00;99.90;;;;;;5036771;28;20053;-70
2023/08/03 00:12:49;;;;;;;5.63;1.83;;;16.90;99.90;;;;;;5052192;28;20041;-70
2023/08/03 00:15:15;;;;;;;8.98;2.03;;;17.00;99.90;;;;;;5052245;28;20025;-70
2023/08/03 00:17:41;;;;;;;9.23;1.80;;;16.90;99.90;;;;;;5036813;28;20029;-70
2023/08/03 00:20:07;;;;;;;3.58;1.63;;;16.90;99.90;;;;;;5036536;28;20032;-71
2023/08/03 00:22:34;;;;;;;5.35;1.70;;;16.80;99.90;;;;;;5051921;28;20021;-70
2023/08/03 00:24:59;;;;;;;3.85;1.63;;;16.80;99.90;;;;;;5051674;28;20025;-71
2023/08/03 00:27:26;;;;;;;7.57;2.05;;;16.70;99.90;;;;;;5036078;28;20084;-71
2023/08/03 00:29:51;;;;;;;9.55;2.17;;;16.70;99.90;;;;;;5036474;28;20022;-71
2023/08/03 00:32:18;;;;;;;8.40;2.33;;;16.80;99.90;;;;;;5036159;28;20541;-70
2023/08/03 00:34:43;;;;;;;5.53;1.85;;;16.70;99.90;;;;;;5036388;28;20025;-71
2023/08/03 00:37:10;;;;;;;3.22;1.70;;;16.60;99.90;;;;;;5036363;28;20577;-71
2023/08/03 00:39:36;;;;;;;4.40;1.70;;;16.50;99.90;;;;;;5036314;28;20116;-71
2023/08/03 00:42:01;;;;;;;6.38;1.95;;;16.50;99.90;;;;;;5036094;28;20101;-71
2023/08/03 00:44:27;;;;;;;4.65;1.92;;;16.50;99.90;;;;;;5036121;28;20492;-70
2023/08/03 00:46:53;;;;;;;5.32;2.03;;;16.60;99.90;;;;;;5035976;28;20395;-71
2023/08/03 00:49:18;;;;;;;4.53;1.88;;;16.60;99.90;;;;;;5035953;28;20022;-71
2023/08/03 00:51:44;;;;;;;4.68;1.52;;;16.60;99.90;;;;;;5035827;28;20029;-71
2023/08/03 00:54:09;;;;;;;3.75;1.95;;;16.50;99.90;;;;;;5035987;28;20044;-71
2023/08/03 00:56:36;;;;;;;3.60;1.50;;;16.50;99.90;;;;;;5035818;28;20061;-71
2023/08/03 00:59:03;;;;;;;3.45;1.60;;;16.40;99.90;;;;;;5051344;28;20395;-71
2023/08/03 01:01:29;;;;;;;3.45;1.45;;;16.40;99.90;;;;;;5035765;28;20061;-70
2023/08/03 01:03:55;;;;;;;3.33;1.30;;;16.40;99.90;;;;;;5035569;28;20053;-70
2023/08/03 01:06:21;;;;;;;4.97;1.75;;;16.50;99.90;;;;;;5034823;28;20487;-70
2023/08/03 01:08:47;;;;;;;2.03;1.17;;;16.40;99.90;;;;;;5035623;28;20079;-71
2023/08/03 01:11:12;;;;;;;5.90;1.58;;;16.50;99.90;;;;;;5035689;28;20025;-71
2023/08/03 01:13:38;;;;;;;3.78;1.40;;;16.50;99.90;;;;;;5035648;28;20033;-70
2023/08/03 01:16:05;;;;;;;4.45;1.88;;;16.40;99.90;;;;;;5035436;28;20029;-71
2023/08/03 01:18:30;;;;;;;3.42;1.48;;;16.40;99.90;;;;;;5035641;28;20557;-70
2023/08/03 01:20:56;;;;;;;6.00;1.70;;;16.30;99.90;;;;;;5035428;28;20061;-70
2023/08/03 01:23:22;;;;;;;2.47;1.52;;;16.30;99.90;;;;;;5035334;28;20029;-71
2023/08/03 01:25:47;;;;;;;6.05;2.00;;;16.20;99.90;;;;;;5035462;28;20022;-69
2023/08/03 01:28:13;;;;;;;2.63;1.70;;;16.10;99.90;;;;;;5035601;28;20104;-70
2023/08/03 01:30:38;;;;;;;6.10;2.10;;;16.10;99.90;;;;;;5035024;28;20025;-70
2023/08/03 01:33:04;;;;;;;2.65;1.83;;;16.00;99.90;;;;;;5035300;28;20502;-70
2023/08/03 01:35:29;;;;;;;5.95;2.42;;;15.90;99.90;;;;;;5035080;28;20107;-70
2023/08/03 01:37:55;;;;;;;5.93;2.15;;;15.90;99.90;;;;;;5035352;28;20087;-71
2023/08/03 01:40:21;;;;;;;5.20;2.42;;;15.80;99.90;;;;;;5034963;28;20024;-71
2023/08/03 01:42:47;;;;;;;4.35;2.25;;;15.80;99.90;;;;;;5035075;28;20033;-71
2023/08/03 01:45:12;;;;;;;3.17;2.00;;;15.80;99.90;;;;;;5035116;28;20080;-71
2023/08/03 01:47:38;;;;;;;6.22;2.35;;;15.90;99.90;;;;;;5034787;28;20071;-71
2023/08/03 01:50:04;;;;;;;2.83;1.85;;;15.90;99.90;;;;;;5034866;28;20033;-71
2023/08/03 01:52:29;;;;;;;5.47;1.90;;;16.00;99.90;;;;;;5034802;28;20025;-70
2023/08/03 01:54:55;;;;;;;5.50;2.00;;;16.10;99.90;;;;;;5034917;28;20390;-70
2023/08/03 01:57:20;;;;;;;5.68;1.88;;;16.00;99.90;;;;;;5034762;28;20025;-70
2023/08/03 01:59:46;;;;;;;2.70;1.70;;;16.10;99.90;;;;;;5034645;28;20029;-70
2023/08/03 02:02:12;;;;;;;3.22;1.80;;;16.10;99.90;;;;;;5034894;28;20104;-70
2023/08/03 02:04:38;;;;;;;5.35;2.10;;;16.10;99.90;;;;;;5034373;28;20145;-71
2023/08/03 02:07:12;;;;;;;5.90;1.55;;;16.10;99.90;;;;;;5034334;28;20116;-70
2023/08/03 02:09:37;;;;;;;1.70;1.60;;;16.20;99.90;;;;;;5034464;28;20021;-69
2023/08/03 02:12:03;;;;;;;2.63;1.40;;;16.20;99.90;;;;;;5034369;28;20022;-69
2023/08/03 02:14:28;;;;;;;3.95;1.58;;;16.20;99.90;;;;;;5034395;28;20021;-70
2023/08/03 02:16:54;;;;;;;2.90;1.48;;;16.20;99.90;;;;;;5034358;28;20026;-69
2023/08/03 02:19:20;;;;;;;3.13;1.75;;;;;;;;;;5034201;28;20025;-70
2023/08/03 02:21:46;;;;;;;3.85;1.73;;;16.20;99.90;;;;;;5034173;28;20494;-70
2023/08/03 02:24:12;;;;;;;7.63;2.05;;;;;;;;;;5034511;28;20029;-69
2023/08/03 02:26:37;;;;;;;3.97;1.73;;;16.40;99.90;;;;;;5034313;28;20044;-68
2023/08/03 02:29:03;;;;;;;2.65;1.60;;;16.30;99.90;;;;;;5034104;28;20032;-68
2023/08/03 02:31:28;;;;;;;6.32;2.25;;;16.20;99.90;;;;;;5034206;28;20394;-68
2023/08/03 02:33:54;;;;;;;4.55;1.67;;;16.30;99.90;;;;;;5034266;28;20021;-70
2023/08/03 02:36:19;;;;;;;3.53;2.00;;;16.30;99.90;;;;;;5034635;28;20028;-70
2023/08/03 02:38:45;;;;;;;4.22;1.70;;;16.30;99.90;;;;;;5035464;28;20025;-70
2023/08/03 02:41:10;;;;;;;3.97;1.95;;;16.30;99.90;;;;;;5034940;28;20037;-69
2023/08/03 02:43:36;;;;;;;4.00;2.10;;;16.30;99.90;;;;;;5034101;28;20029;-69
2023/08/03 02:46:01;;;;;;;4.18;2.28;;;16.30;99.90;;;;;;5033931;28;20025;-69
2023/08/03 02:48:27;;;;;;;5.10;2.53;;;16.20;99.90;;;;;;5033973;28;20391;-69
2023/08/03 02:50:52;;;;;;;4.72;2.17;;;16.20;99.90;;;;;;5034291;28;20032;-70
2023/08/03 02:53:18;;;;;;;4.45;2.35;;;16.20;99.90;;;;;;5037271;28;20116;-70
2023/08/03 02:55:44;;;;;;;5.35;2.45;;;16.30;99.90;;;;;;5040645;28;20025;-70
2023/08/03 02:58:09;;;;;;;7.45;2.72;;;16.30;99.90;;;;;;5041796;28;20040;-71
2023/08/03 03:00:35;;;;;;;6.40;2.70;;;16.30;99.90;;;;;;5042874;28;20085;-69
2023/08/03 03:03:01;;;;;;;8.10;2.72;;;16.30;99.90;;;;;;5060087;28;20021;-72
2023/08/03 03:05:26;;;;;;;8.18;2.83;;;16.30;99.90;;;;;;5034227;28;20052;-71
2023/08/03 03:07:52;;;;;;;6.80;2.63;;;16.30;99.90;;;;;;5034077;28;20105;-71
2023/08/03 03:10:17;;;;;;;4.15;2.17;;;16.40;99.90;;;;;;5034549;28;20021;-70
2023/08/03 03:12:43;;;;;;;4.78;2.38;;;16.40;99.90;;;;;;5034220;28;20032;-70
2023/08/03 03:15:09;;;;;;;5.82;2.80;;;16.50;99.90;;;;;;5034120;28;20079;-70
2023/08/03 03:17:34;;;;;;;7.97;2.08;;;16.50;99.90;;;;;;5034264;28;20396;-70
2023/08/03 03:20:00;;;;;;;4.82;2.28;;;16.50;99.90;;;;;;5034550;28;20026;-69
2023/08/03 03:22:25;;;;;;;9.38;2.60;;;16.50;99.90;;;;;;5033686;28;20061;-70
2023/08/03 03:24:51;;;;;;;5.45;2.50;;;16.50;99.90;;;;;;5033693;28;20025;-70
2023/08/03 03:27:16;;;;;;;7.82;2.50;;;16.50;99.90;;;;;;5048828;28;20021;-69
2023/08/03 03:29:42;;;;;;;6.45;2.10;;;16.50;99.90;;;;;;5032832;28;20029;-70
2023/08/03 03:32:07;;;;;;;5.80;2.33;;;16.50;99.90;;;;;;5033456;28;20033;-69
2023/08/03 03:34:33;;;;;;;11.50;3.03;;;16.50;99.90;;;;;;5033434;28;20372;-70
2023/08/03 03:36:58;;;;;;;7.28;3.20;;;16.40;99.90;;;;;;5033578;28;20025;-70
2023/08/03 03:39:24;;;;;;;8.75;3.08;;;16.30;99.90;;;;;;5033403;28;20036;-69
2023/08/03 03:41:49;;;;;;;8.63;2.90;;;16.20;99.90;;;;;;5033238;28;20029;-69
2023/08/03 03:44:15;;;;;;;7.57;2.95;;;16.20;99.90;;;;;;5033263;28;20372;-70
2023/08/03 03:46:40;;;;;;;7.70;3.35;;;16.20;99.90;;;;;;5033060;28;20052;-70
2023/08/03 03:49:06;;;;;;;8.00;2.95;;;16.20;99.90;;;;;;5033154;28;20071;-70
2023/08/03 03:51:31;;;;;;;7.72;3.13;;;16.10;99.90;;;;;;5033069;28;20037;-69
2023/08/03 03:53:57;;;;;;;9.05;3.17;;;16.10;99.90;;;;;;5033255;28;20021;-69
2023/08/03 03:56:22;;;;;;;8.73;3.20;;;16.10;99.90;;;;;;5033161;28;20049;-70
2023/08/03 03:58:48;;;;;;;11.25;2.90;;;16.10;99.90;;;;;;5033209;28;20033;-69
2023/08/03 04:01:13;;;;;;;10.13;3.67;;;16.20;99.90;;;;;;5032874;28;20030;-70
2023/08/03 04:03:39;;;;;;;9.82;3.25;;;16.20;99.90;;;;;;5032433;28;20045;-69
2023/08/03 04:06:04;;;;;;;7.63;2.83;;;16.20;99.90;;;;;;5032856;28;20104;-69
2023/08/03 04:08:30;;;;;;;8.55;2.97;;;16.30;99.90;;;;;;5032743;28;20033;-69
2023/08/03 04:10:55;;;;;;;7.40;2.90;;;16.20;99.90;;;;;;5032953;28;20040;-70
2023/08/03 04:13:21;;;;;;;7.15;2.75;;;16.40;99.90;;;;;;5032903;28;20022;-70
2023/08/03 04:15:46;;;;;;;7.20;2.85;;;16.40;99.90;;;;;;5033139;28;20056;-70
2023/08/03 04:18:12;;;;;;;9.52;2.80;;;16.40;99.90;;;;;;5032697;28;20036;-69
2023/08/03 04:20:37;;;;;;;8.57;2.83;;;16.40;99.90;;;;;;5032640;28;20069;-69
2023/08/03 04:23:03;;;;;;;8.45;2.60;;;16.50;99.90;;;;;;5032683;28;20026;-70
2023/08/03 04:25:29;;;;;;;7.53;2.97;;;16.40;99.90;;;;;;5032962;28;20519;-69
2023/08/03 04:27:54;;;;;;;6.93;2.47;;;16.40;99.90;;;;;;5032818;28;20107;-69
2023/08/03 04:30:20;;;;;;;5.90;2.83;;;16.50;99.90;;;;;;5032711;28;20025;-69
2023/08/03 04:32:45;;;;;;;5.88;2.42;;;16.60;99.90;;;;;;5032797;28;20069;-70
2023/08/03 04:35:11;;;;;;;8.48;2.67;;;16.60;99.90;;;;;;5032419;28;20083;-69
2023/08/03 04:37:36;;;;;;;5.03;2.17;;;16.60;99.90;;;;;;5032735;28;20108;-69
2023/08/03 04:40:04;;;;;;;7.13;2.30;;;16.60;99.90;;;;;;5032698;28;20026;-69
2023/08/03 04:42:29;;;;;;;6.93;2.20;;;16.60;99.90;;;;;;5049675;28;20483;-70
2023/08/03 04:44:56;;;;;;;4.30;2.00;;;16.60;99.90;;;;;;5036148;28;20105;-72
2023/08/03 04:47:21;;;;;;;4.97;1.90;;;16.60;99.90;;;;;;5035902;28;20029;-70
2023/08/03 04:49:47;;;;;;;6.03;1.85;;;16.60;99.90;;;;;;5036107;28;20440;-69
2023/08/03 04:52:13;;;;;;;3.85;2.00;;;16.60;99.90;;;;;;5035689;28;20128;-69
2023/08/03 04:54:39;;;;;;;3.78;1.92;;;16.70;99.90;;;;;;5035824;28;20399;-69
2023/08/03 04:57:04;;;;;;;6.20;2.05;;;16.70;99.90;;;;;;5035812;28;20097;-69
2023/08/03 04:59:30;;;;;;;7.68;2.30;;;16.70;99.90;;;;;;5035794;28;20083;-69
2023/08/03 05:01:55;;;;;;;5.43;1.70;;;16.80;99.90;;;;;;5035636;28;20026;-70
2023/08/03 05:04:21;;;;;;;5.35;1.70;;;16.90;99.90;;;;;;5035609;28;20056;-69
2023/08/03 05:06:46;;;;;;;6.10;2.10;;;16.90;99.90;;;;;;5035753;28;20089;-70
2023/08/03 05:09:12;;;;;;;6.47;1.73;;;16.80;99.90;;;;;;5035801;28;20489;-69
2023/08/03 05:11:37;;;;;;;3.97;1.60;;;16.90;99.90;;;;;;5035585;28;20025;-71
2023/08/03 05:14:03;;;;;;;4.85;1.88;;;16.90;99.90;;;;;;5035511;28;20071;-70
2023/08/03 05:16:28;;;;;;;7.75;1.80;;;17.00;99.90;;;;;;5035487;28;20403;-70
2023/08/03 05:18:54;;;;;;;7.18;2.00;;;17.00;99.90;;;;;;5035537;28;20037;-70
2023/08/03 05:21:20;;;;;;;5.38;1.73;;;16.90;99.90;;;;;;5035648;28;20108;-70
2023/08/03 05:23:46;;;;;;;4.70;1.70;;;17.00;99.90;;;;;;5035222;28;20036;-71
2023/08/03 05:26:12;;;;;;;4.72;1.90;;;17.00;99.90;;;;;;5035203;28;20061;-71
2023/08/03 05:28:37;;;;;;;7.18;1.80;;;17.00;99.90;;;;;;5035273;28;20060;-72
2023/08/03 05:31:05;;;;;;;4.60;1.48;;;17.00;99.90;;;;;;5035233;28;20383;-71
2023/08/03 05:33:33;;;;;;;6.80;1.92;;;17.00;99.90;;;;;;5035443;28;20083;-72
2023/08/03 05:35:59;;;;;;;4.35;1.90;;;17.00;99.90;;;;;;5035224;28;20475;-70
2023/08/03 05:38:25;;;;;;;4.63;1.73;;;16.90;99.90;;;;;;5035337;28;20041;-71
2023/08/03 05:40:50;;;;;;;6.85;1.70;;;16.80;99.90;;;;;;5035293;28;20025;-71
2023/08/03 05:43:16;;;;;;;4.78;1.90;;;16.70;99.90;;;;;;5035132;28;20026;-71
2023/08/03 05:45:44;;;;;;;4.75;1.88;;;16.70;99.90;;;;;;5034892;28;20033;-70
2023/08/03 05:48:18;;;;;;;5.43;1.67;;;16.70;99.90;;;;;;5035028;28;20033;-69
2023/08/03 05:50:47;;;;;;;4.35;2.05;;;16.70;99.90;;;;;;5034852;28;20021;-70
2023/08/03 05:53:13;;;;;;;7.57;1.98;;;16.70;99.90;;;;;;5034326;28;20057;-71
2023/08/03 05:55:40;;;;;;;7.40;2.25;;;16.70;99.90;;;;;;5050166;28;20029;-70
2023/08/03 05:58:09;;;;;;;5.18;2.17;;;16.60;99.90;;;;;;5034592;28;20035;-70
2023/08/03 06:00:35;;;;;;;5.50;2.05;;;16.60;99.90;;;;;;5048340;28;20475;-70
2023/08/03 06:03:00;;;;;;;3.42;1.77;;;16.60;99.90;;;;;;5050042;28;20037;-69
2023/08/03 06:05:44;;;;;;;3.28;1.55;;;16.60;99.90;;;;;;5052447;28;20048;-71
2023/08/03 06:08:26;;;;;;;4.18;1.90;;;16.60;99.90;;;;;;5059752;28;20033;-69
2023/08/03 06:10:54;;;;;;;7.13;2.45;;;16.60;99.90;;;;;;5054330;28;20021;-69
2023/08/03 06:13:25;;;;;;;6.53;2.10;;;16.60;99.90;;;;;;5054087;28;20040;-71
2023/08/03 06:15:51;;;;;;;6.60;2.15;;;16.60;99.90;;;;;;5053058;28;20025;-69
2023/08/03 06:18:19;;;;;;;7.10;2.00;;;16.60;99.90;;;;;;5049186;28;20037;-68
2023/08/03 06:20:48;;;;;;;4.30;1.88;;;16.70;99.90;;;;;;5053926;28;20056;-70
2023/08/03 06:23:22;;;;;;;5.05;1.73;;;16.70;99.90;;;;;;5053808;28;20021;-69
2023/08/03 06:25:50;;;;;;;3.20;1.80;;;16.80;99.90;;;;;;5054076;28;20025;-71
2023/08/03 06:28:17;;;;;;;7.63;1.90;;;16.90;99.90;;;;;;5054004;28;20025;-70
2023/08/03 06:30:44;;;;;;;4.32;1.98;;;17.00;99.90;;;;;;5036370;28;20025;-70
2023/08/03 06:33:12;;;;;;;3.10;2.00;;;17.00;99.90;;;;;;5053986;28;20449;-70
2023/08/03 06:35:41;;;;;;;2.75;1.70;;;17.00;99.90;;;;;;5053677;28;20025;-70
2023/08/03 06:38:13;;;;;;;4.20;1.70;;;17.10;99.90;;;;;;5052371;28;20021;-71
2023/08/03 06:40:40;;;;;;;4.80;1.42;;;17.10;99.90;;;;;;5048079;28;20060;-71
2023/08/03 06:43:07;;;;;;;2.88;1.50;;;17.10;99.90;;;;;;5050548;28;20486;-71
2023/08/03 06:45:33;;;;;;;3.15;1.90;;;17.10;99.90;;;;;;5045600;28;20029;-71
2023/08/03 06:48:00;;;;;;;2.60;1.30;;;17.10;99.90;;;;;;5052880;28;20482;-70
2023/08/03 06:50:29;;;;;;;3.47;1.30;;;17.10;99.90;;;;;;5052462;28;20035;-70
2023/08/03 06:52:55;;;;;;;2.13;1.48;;;17.10;99.90;;;;;;5053750;28;20112;-70
2023/08/03 06:55:21;;;;;;;2.85;1.70;;;17.10;99.90;;;;;;5052656;28;20017;-70
2023/08/03 06:57:47;;;;;;;6.03;1.67;;;16.90;99.90;;;;;;5053737;28;20394;-70
2023/08/03 07:00:13;;;;;;;6.15;1.63;;;16.80;99.90;;;;;;5050292;28;20025;-69
2023/08/03 07:02:39;;;;;;;2.97;2.00;;;16.60;99.90;;;;;;5052598;28;20486;-71
2023/08/03 07:05:05;;;;;;;2.35;1.83;;;16.50;99.90;;;;;;5050581;28;20083;-71
2023/08/03 07:07:31;;;;;;;2.67;2.40;;;16.40;99.90;;;;;;5053284;28;20075;-71
2023/08/03 07:09:57;;;;;;;6.97;2.13;;;16.40;99.90;;;;;;5053652;28;20387;-71
2023/08/03 07:12:23;;;;;;;3.95;2.33;;;16.40;99.90;;;;;;5047699;28;20032;-71
2023/08/03 07:14:48;;;;;;;3.53;2.60;;;16.30;99.90;;;;;;5050530;28;20513;-71
2023/08/03 07:17:14;;;;;;;3.25;1.90;;;16.30;99.90;;;;;;5045587;28;20039;-71
2023/08/03 07:19:41;;;;;;;4.65;2.17;;;16.20;99.90;;;;;;5047163;28;20064;-71
2023/08/03 07:22:07;;;;;;;3.88;2.00;;;16.20;99.90;;;;;;5046469;28;20029;-70
2023/08/03 07:24:33;;;;;;;6.22;2.00;;;16.20;99.90;;;;;;5050924;28;20032;-70
2023/08/03 07:27:00;;;;;;;4.15;1.55;;;16.10;99.90;;;;;;5051207;28;20025;-69
2023/08/03 07:29:27;;;;;;;3.35;1.95;;;16.10;99.90;;;;;;5049173;28;20074;-69
2023/08/03 07:31:53;;;;;;;4.90;2.10;;;16.00;99.90;;;;;;5050530;28;20036;-69
2023/08/03 07:34:18;;;;;;;3.58;1.88;;;16.00;99.90;;;;;;5049156;28;20026;-69
2023/08/03 07:36:45;;;;;;;4.05;2.00;;;16.00;99.90;;;;;;5050381;28;20040;-69
2023/08/03 07:39:11;;;;;;;3.65;2.13;;;15.90;99.90;;;;;;5045294;28;20185;-69
2023/08/03 07:41:37;;;;;;;4.55;2.20;;;15.90;99.90;;;;;;5043329;28;20913;-69
2023/08/03 07:44:03;;;;;;;2.63;2.20;;;16.00;99.90;;;;;;5048194;28;20091;-69
2023/08/03 07:46:30;;;;;;;5.00;2.13;;;16.00;99.90;;;;;;5050737;28;20029;-69
2023/08/03 07:48:56;;;;;;;2.22;1.98;;;16.00;99.90;;;;;;5042885;28;20033;-69
2023/08/03 07:51:22;;;;;;;3.05;2.13;;;16.00;99.90;;;;;;5048119;28;20024;-70
2023/08/03 07:53:47;;;;;;;2.38;2.17;;;16.00;99.90;;;;;;5050883;28;20038;-68
2023/08/03 07:56:15;;;;;;;2.92;1.98;;;16.10;99.90;;;;;;5046957;28;20083;-68
2023/08/03 07:58:40;;;;;;;3.38;2.30;;;16.10;99.90;;;;;;5049795;28;20052;-69
2023/08/03 08:01:06;;;;;;;3.03;2.08;;;16.20;99.90;;;;;;5049996;28;20083;-70
2023/08/03 08:03:31;;;;;;;3.33;2.20;;;16.10;99.90;;;;;;5050054;28;20036;-69
2023/08/03 08:06:16;;;;;;;5.22;1.92;;;16.10;99.90;;;;;;5047571;28;20040;-68
2023/08/03 08:08:42;;;;;;;3.33;2.22;;;16.10;99.90;;;;;;5050138;28;20025;-67
2023/08/03 08:11:08;;;;;;;2.88;1.88;;;16.10;99.90;;;;;;5051064;28;20036;-69
2023/08/03 08:13:34;;;;;;;5.97;3.40;;;16.10;99.90;;;;;;5048110;28;20025;-69
2023/08/03 08:16:02;;;;;;;7.88;4.35;;;16.10;99.90;;;;;;5045884;28;20033;-69
2023/08/03 08:18:28;;;;;;;6.68;4.53;;;16.20;99.90;;;;;;5051076;28;20029;-70
2023/08/03 08:20:56;;;;;;;6.43;2.95;;;16.40;99.90;;;;;;5054313;28;20087;-69
2023/08/03 08:23:22;;;;;;;4.13;2.40;;;16.50;99.90;;;;;;5053072;28;20048;-69
2023/08/03 08:25:47;;;;;;;4.68;2.80;;;16.50;99.90;;;;;;5051603;28;20071;-68
2023/08/03 08:28:13;;;;;;;4.57;2.67;;;16.60;99.90;;;;;;5056176;28;20542;-69
2023/08/03 08:30:39;;;;;;;3.35;2.50;;;16.70;99.90;;;;;;5053870;28;20033;-68
2023/08/03 08:33:05;;;;;;;4.22;2.53;;;16.70;99.90;;;;;;5056321;28;20360;-70
2023/08/03 08:35:31;;;;;;;7.63;5.35;;;16.90;99.90;;;;;;5049641;28;20372;-69
2023/08/03 08:37:59;;;;;;;3.28;2.80;;;16.90;99.90;;;;;;5049063;28;20395;-69
2023/08/03 08:40:25;;;;;;;3.75;2.50;;;16.80;99.90;;;;;;5047746;28;20037;-69
2023/08/03 08:42:52;;;;;;;4.28;2.40;;;16.70;99.90;;;;;;5046867;28;20025;-68
2023/08/03 08:45:18;;;;;;;4.75;2.70;;;16.80;99.90;;;;;;5047899;28;20036;-70
2023/08/03 08:47:45;;;;;;;3.38;2.60;;;16.90;99.90;;;;;;5050042;28;20036;-71
2023/08/03 08:50:10;;;;;;;5.45;3.03;;;17.00;99.90;;;;;;5055687;28;20102;-70
2023/08/03 08:52:38;;;;;;;5.47;3.53;;;17.00;99.90;;;;;;5050556;28;20083;-71
2023/08/03 08:55:25;;;;;;;6.68;3.00;;;17.10;99.90;;;;;;5054760;28;20032;-70
2023/08/03 08:57:51;;;;;;;4.30;2.80;;;17.20;99.90;;;;;;5048486;28;20390;-70
2023/08/03 09:00:18;;;;;;;4.28;2.67;;;17.30;99.90;;;;;;5051842;28;20029;-70
2023/08/03 09:02:43;;;;;;;5.38;3.15;;;17.40;99.90;;;;;;5052549;28;20108;-69
2023/08/03 09:05:15;;;;;;;5.45;2.88;;;17.50;99.90;;;;;;5066995;28;20143;-68
2023/08/03 09:07:41;;;;;;;4.55;2.88;;;17.60;99.90;;;;;;5051665;28;20451;-71
2023/08/03 09:10:07;;;;;;;4.63;3.20;;;17.60;99.90;;;;;;5053693;28;20478;-68
2023/08/03 09:12:33;;;;;;;3.17;2.88;;;17.60;99.90;;;;;;5050263;28;20033;-69
2023/08/03 09:14:59;;;;;;;4.60;2.70;;;17.80;99.90;;;;;;5049748;28;20032;-69
2023/08/03 09:17:26;;;;;;;6.78;2.58;;;18.60;99.90;;;;;;5051969;28;20041;-71
2023/08/03 09:19:52;;;;;;;4.85;2.75;;;18.70;99.90;;;;;;5063939;28;20095;-70
2023/08/03 09:22:19;;;;;;;4.28;2.90;;;18.50;99.90;;;;;;5058394;28;20386;-71
2023/08/03 09:24:47;;;;;;;7.57;3.10;;;18.20;99.90;;;;;;5055255;28;20029;-68
2023/08/03 09:27:19;;;;;;;7.05;2.97;;;18.30;99.90;;;;;;5050387;28;20108;-69
2023/08/03 09:29:45;;;;;;;6.60;2.55;;;19.20;99.90;;;;;;5049510;28;20033;-69
2023/08/03 09:32:11;;;;;;;3.55;2.20;;;19.10;99.90;;;;;;5050543;28;20025;-70
2023/08/03 09:34:42;;;;;;;3.35;2.13;;;19.20;99.90;;;;;;5051920;28;20029;-65
2023/08/03 09:37:08;;;;;;;4.43;2.40;;;19.00;99.90;;;;;;5041172;28;20038;-68
2023/08/03 09:39:37;;;;;;;7.80;2.15;;;18.90;99.90;;;;;;5041904;28;20087;-66
2023/08/03 09:42:05;;;;;;;4.53;1.95;;;18.90;99.90;;;;;;5050652;28;20035;-67
2023/08/03 09:44:33;;;;;;;3.45;2.00;;;18.80;99.90;;;;;;5049896;28;20036;-68
2023/08/03 09:47:01;;;;;;;4.55;2.25;;;18.80;99.90;;;;;;5052262;28;20032;-68
2023/08/03 09:49:27;;;;;;;4.13;2.00;;;18.40;99.90;;;;;;5048970;28;20036;-70
2023/08/03 09:51:57;;;;;;;7.90;2.33;;;18.50;99.90;;;;;;5054257;28;20037;-70
2023/08/03 09:54:38;;;;;;;4.07;2.00;;;18.80;99.90;;;;;;5053083;28;20100;-71
2023/08/03 09:57:13;;;;;;;5.45;2.22;;;18.80;99.90;;;;;;5045332;28;20025;-73
2023/08/03 09:59:43;;;;;;;8.55;2.40;;;18.70;99.90;;;;;;5052864;28;20179;-71
2023/08/03 10:02:11;;;;;;;6.05;2.60;;;18.50;99.90;;;;;;5051573;28;20513;-70
2023/08/03 10:04:42;;;;;;;4.63;2.45;;;18.40;99.90;;;;;;5054328;28;20620;-69
2023/08/03 10:07:10;;;;;;;3.45;2.20;;;18.40;99.90;;;;;;5052449;28;20086;-70
2023/08/03 10:09:42;;;;;;;3.47;2.70;;;18.30;99.90;;;;;;5053543;28;20033;-69
2023/08/03 10:12:16;;;;;;;4.80;2.45;;;18.30;99.90;;;;;;5052688;28;20049;-69
2023/08/03 10:14:43;;;;;;;6.90;2.60;;;18.20;99.90;;;;;;5051935;28;20029;-69
2023/08/03 10:17:11;;;;;;;4.35;2.55;;;18.10;99.90;;;;;;5051700;28;20040;-69
2023/08/03 10:19:38;;;;;;;5.75;3.00;;;18.10;99.90;;;;;;5050141;28;20064;-69
2023/08/03 10:22:07;;;;;;;4.55;2.58;;;18.10;99.90;;;;;;5050355;28;20107;-69
2023/08/03 10:24:33;;;;;;;2.88;2.00;;;18.10;99.90;;;;;;5043839;28;20037;-71
2023/08/03 10:27:17;;;;;;;4.88;2.08;;;18.10;99.90;;;;;;5068458;28;20069;-69
2023/08/03 10:29:53;;;;;;;5.43;2.00;;;18.00;99.90;;;;;;5048934;28;20025;-69
2023/08/03 10:32:21;;;;;;;5.57;2.05;;;17.90;99.90;;;;;;5050201;28;20021;-69
2023/08/03 10:34:47;;;;;;;3.28;1.85;;;17.90;99.90;;;;;;5051998;28;20028;-69
2023/08/03 10:37:13;;;;;;;4.38;2.05;;;18.00;99.90;;;;;;5049559;28;20544;-69
2023/08/03 10:39:47;;;;;;;4.70;2.10;;;18.10;99.90;;;;;;5050681;28;20033;-69
2023/08/03 10:42:23;;;;;;;5.47;2.60;;;18.10;99.90;;;;;;5046670;28;20040;-71
2023/08/03 10:44:49;;;;;;;4.25;2.03;;;18.20;99.90;;;;;;5049177;28;20402;-69
2023/08/03 10:47:22;;;;;;;2.88;1.75;;;18.20;99.90;;;;;;5050304;28;20036;-72
2023/08/03 10:49:49;;;;;;;5.55;2.08;;;18.10;99.90;;;;;;5049650;28;20036;-70
2023/08/03 10:52:18;;;;;;;3.10;1.92;;;18.10;99.90;;;;;;5064053;28;20029;-70
2023/08/03 10:54:44;;;;;;;3.60;2.10;;;18.10;99.90;;;;;;5052875;28;20493;-71
2023/08/03 10:57:12;;;;;;;2.83;2.20;;;18.20;99.90;;;;;;5038148;28;20123;-70
2023/08/03 10:59:39;;;;;;;3.88;1.90;;;18.20;99.90;;;;;;5059318;28;20443;-70
2023/08/03 11:04:51;;;;;;;2.60;2.05;;;18.30;99.90;;;;;;5064662;28;20905;-70
2023/08/03 11:07:20;;;;;;;6.07;2.10;;;18.30;99.90;;;;;;5047656;28;20083;-70
2023/08/03 11:09:49;;;;;;;2.35;2.03;;;18.30;99.90;;;;;;5030436;28;20037;-70
2023/08/03 11:12:16;;;;;;;3.90;2.20;;;18.20;99.90;;;;;;5019340;28;20034;-69
2023/08/03 11:14:46;;;;;;;3.80;2.08;;;18.20;99.90;;;;;;5027804;28;20120;-70
2023/08/03 11:17:14;;;;;;;3.30;2.50;;;18.10;99.90;;;;;;5027835;28;20113;-68
2023/08/03 11:19:40;;;;;;;6.57;2.60;;;19.20;99.90;;;;;;5028896;28;20442;-67
2023/08/03 11:22:08;;;;;;;3.47;2.60;;;17.90;99.90;;;;;;5024684;28;20065;-66
2023/08/03 11:24:33;;;;;;;5.53;2.72;;;18.00;99.90;;;;;;5025071;28;20037;-68
2023/08/03 11:26:59;;;;;;;5.68;3.25;;;17.80;99.90;;;;;;5028415;28;20026;-69
2023/08/03 11:29:25;;;;;;;8.23;3.67;;;17.70;99.90;;;;;;5032345;28;20398;-69
2023/08/03 11:31:52;;;;;;;5.13;3.55;;;17.60;99.90;;;;;;5028500;28;20087;-69
2023/08/03 11:34:18;;;;;;;6.35;3.63;;;17.70;99.90;;;;;;5021410;28;20037;-69
2023/08/03 11:36:48;;;;;;;3.83;3.17;;;17.70;99.90;;;;;;5023975;28;20026;-69
2023/08/03 11:39:14;;;;;;;5.55;3.35;;;17.90;99.90;;;;;;5027765;28;20022;-70
2023/08/03 11:41:41;;;;;;;6.57;3.40;;;18.00;99.90;;;;;;5026616;28;20091;-70
2023/08/03 11:44:07;;;;;;;4.63;3.53;;;17.80;99.90;;;;;;5027009;28;20029;-69
2023/08/03 11:46:32;;;;;;;4.65;3.95;;;17.60;99.90;;;;;;5021634;28;20514;-71
2023/08/03 11:49:00;;;;;;;4.43;3.72;;;17.50;99.90;;;;;;5018309;28;20116;-72
2023/08/03 11:51:36;;;;;;;6.68;4.25;;;17.50;99.90;;;;;;5024975;28;20446;-71
2023/08/03 11:54:10;;;;;;;8.10;4.47;;;17.40;99.90;;;;;;5018081;28;20073;-69
2023/08/03 11:56:38;;;;;;;6.00;4.35;;;17.40;99.90;;;;;;5028676;28;20476;-69
2023/08/03 11:59:05;;;;;;;5.15;4.60;;;17.40;99.90;;;;;;5029013;28;20041;-70
2023/08/03 12:01:30;;;;;;;7.13;4.68;;;17.30;99.90;;;;;;5028683;28;20507;-70
2023/08/03 12:04:05;;;;;;;5.55;4.53;;;17.30;99.90;;;;;;5025059;28;20073;-70
2023/08/03 12:06:52;;;;;;;8.38;4.72;;;17.40;99.90;;;;;;5027613;28;20101;-73
2023/08/03 12:09:20;;;;;;;4.97;4.15;;;17.50;99.90;;;;;;5014633;28;20052;-69
2023/08/03 12:11:46;;;;;;;7.05;4.97;;;17.50;99.90;;;;;;5020637;28;20037;-70
2023/08/03 12:14:11;;;;;;;6.82;4.50;;;17.60;99.90;;;;;;5020917;28;20391;-70
2023/08/03 12:16:38;;;;;;;9.63;4.68;;;17.60;99.90;;;;;;5014179;28;20104;-70
2023/08/03 12:19:08;;;;;;;9.15;4.90;;;17.70;99.90;;;;;;5006665;28;20154;-69
2023/08/03 12:21:35;;;;;;;8.23;5.13;;;17.70;99.90;;;;;;5008556;28;20029;-69
2023/08/03 12:24:01;;;;;;;7.47;4.70;;;17.80;99.90;;;;;;5002611;28;20034;-69
2023/08/03 12:26:27;;;;;;;6.82;4.82;;;18.00;99.90;;;;;;5004701;28;20036;-69
2023/08/03 12:28:52;;;;;;;7.90;4.70;;;18.30;99.90;;;;;;5003935;28;20467;-69
2023/08/03 12:31:18;;;;;;;6.93;4.22;;;18.50;99.90;;;;;;4998961;28;20038;-69
2023/08/03 12:33:43;;;;;;;4.25;3.85;;;18.50;99.90;;;;;;5008682;28;20033;-70
2023/08/03 12:36:09;;;;;;;6.97;3.80;;;18.70;99.90;;;;;;5008706;28;20100;-71
2023/08/03 12:38:35;;;;;;;5.60;4.03;;;18.70;99.90;;;;;;5007832;28;20500;-69
2023/08/03 12:41:00;;;;;;;7.18;4.43;;;18.70;99.90;;;;;;5019859;28;20026;-69
2023/08/03 12:43:26;;;;;;;7.35;3.58;;;18.80;99.90;;;;;;5011648;28;20029;-71
2023/08/03 12:45:51;;;;;;;6.65;3.80;;;19.00;99.90;;;;;;5013766;28;20026;-69
2023/08/03 12:48:17;;;;;;;8.70;3.90;;;19.20;99.90;;;;;;5005791;28;20119;-69